Time;durP1;ratioP1;P1;durP2;ratioP2;P2;SDS_P1;SDS_P2;PMS_P1;PMS_P2;Temp;Humidity;BMP_temperature;BMP_pressure;BME280_temperature;BME280_humidity;BME280_pressure;Samples;Min_cycle;Max_cycle;Signal;HPM_P1;HPM_P2
2024/01/15 00:01:42;;;;;;;11.90;11.40;;;;;;;;;;5091396;28;20093;-67
2024/01/15 00:04:09;;;;;;;14.55;14.00;;;;;;;;;;5091219;28;20089;-67
2024/01/15 00:06:35;;;;;;;12.02;11.40;;;;;;;;;;5092490;28;20052;-67
2024/01/15 00:09:03;;;;;;;15.23;14.63;;;;;;;;;;5091209;28;20105;-67
2024/01/15 00:11:30;;;;;;;11.45;10.57;;;;;;;;;;5091430;28;20406;-67
2024/01/15 00:13:56;;;;;;;13.00;12.50;;;;;;;;;;5091256;28;20047;-68
2024/01/15 00:16:23;;;;;;;17.85;17.08;;;;;;;;;;5090032;28;20048;-67
2024/01/15 00:18:49;;;;;;;12.82;12.27;;;;;;;;;;5092290;28;22164;-67
2024/01/15 00:21:16;;;;;;;13.85;13.25;;;;;;;;;;5102537;28;20052;-67
2024/01/15 00:23:43;;;;;;;13.95;13.43;;;;;;;;;;5090955;28;20044;-66
2024/01/15 00:26:11;;;;;;;13.63;13.10;;;;;;;;;;5104529;28;20040;-66
2024/01/15 00:28:38;;;;;;;19.00;18.13;;;;;;;;;;5111135;28;20044;-67
2024/01/15 00:31:05;;;;;;;9.95;9.57;;;;;;;;;;5111357;28;20043;-66
2024/01/15 00:33:31;;;;;;;13.80;13.20;;;;;;;;;;5091333;28;20112;-66
2024/01/15 00:35:58;;;;;;;11.82;11.40;;;;;;;;;;5110577;28;20056;-66
2024/01/15 00:38:24;;;;;;;12.27;11.80;;;;;;;;;;5115161;28;20093;-66
2024/01/15 00:40:51;;;;;;;13.55;13.02;;;;;;;;;;5114830;28;20097;-66
2024/01/15 00:43:19;;;;;;;14.20;13.45;;;;;;;;;;5114932;28;20047;-66
2024/01/15 00:45:45;;;;;;;19.20;18.30;;;;;;;;;;5099483;28;20054;-66
2024/01/15 00:48:12;;;;;;;16.88;16.00;;;;;;;;;;5093351;28;20044;-66
2024/01/15 00:50:38;;;;;;;16.35;15.40;;;;;;;;;;5109054;28;20105;-67
2024/01/15 00:53:05;;;;;;;14.73;14.13;;;;;;;;;;5115220;28;20051;-67
2024/01/15 00:55:31;;;;;;;14.48;13.93;;;;;;;;;;5115003;28;20105;-67
2024/01/15 00:57:58;;;;;;;14.75;14.10;;;;;;;;;;5100497;28;20056;-67
2024/01/15 01:00:26;;;;;;;15.18;14.57;;;;;;;;;;5094624;28;20052;-67
2024/01/15 01:02:53;;;;;;;29.45;28.23;;;;;;;;;;5094428;28;20131;-66
2024/01/15 01:05:19;;;;;;;16.35;15.55;;;;;;;;;;5094433;28;20089;-66
2024/01/15 01:07:46;;;;;;;10.48;10.07;;;;;;;;;;5103487;28;20112;-66
2024/01/15 01:10:12;;;;;;;12.13;11.52;;;;;;;;;;5114513;28;20100;-67
2024/01/15 01:12:39;;;;;;;15.30;14.75;;;;;;;;;;5112831;28;20043;-66
2024/01/15 01:15:06;;;;;;;17.67;17.05;;;;;;;;;;5094146;28;20048;-67
2024/01/15 01:17:34;;;;;;;14.18;13.65;;;;;;;;;;5109942;28;20052;-66
2024/01/15 01:20:01;;;;;;;11.13;10.73;;;;;;;;;;5114571;28;20991;-67
2024/01/15 01:22:28;;;;;;;14.52;13.32;;;;;;;;;;5108033;28;20071;-66
2024/01/15 01:24:54;;;;;;;16.77;15.93;;;;;;;;;;5101961;28;20100;-66
2024/01/15 01:27:20;;;;;;;9.57;9.18;;;;;;;;;;5112572;28;20172;-66
2024/01/15 01:29:47;;;;;;;11.05;10.43;;;;;;;;;;5100323;28;20448;-66
2024/01/15 01:32:13;;;;;;;15.23;14.57;;;;;;;;;;5114328;28;20048;-66
2024/01/15 01:34:43;;;;;;;18.67;17.73;;;;;;;;;;5114063;28;20051;-67
2024/01/15 01:37:09;;;;;;;11.85;11.35;;;;;;;;;;5114216;28;20409;-66
2024/01/15 01:39:36;;;;;;;12.90;12.23;;;;;;;;;;5096062;28;20109;-67
2024/01/15 01:42:02;;;;;;;11.07;10.65;;;;;;;;;;5093749;28;20056;-67
2024/01/15 01:44:29;;;;;;;21.98;20.88;;;;;;;;;;5113139;28;20266;-68
2024/01/15 01:46:55;;;;;;;13.55;12.43;;;;;;;;;;5113766;28;20055;-66
2024/01/15 01:49:23;;;;;;;17.17;16.05;;;;;;;;;;5113848;28;20048;-67
2024/01/15 01:51:51;;;;;;;26.08;25.05;;;;;;;;;;5113792;28;20043;-67
2024/01/15 01:54:18;;;;;;;17.67;16.65;;;;;;;;;;5105910;28;20054;-66
2024/01/15 01:56:45;;;;;;;17.40;16.67;;;;;;;;;;5093305;28;20048;-67
2024/01/15 01:59:12;;;;;;;17.13;16.52;;;;;;;;;;5109253;28;20048;-66
2024/01/15 02:01:39;;;;;;;13.85;13.23;;;;;;;;;;5113642;28;20052;-68
2024/01/15 02:04:05;;;;;;;21.38;20.35;;;;;;;;;;5113580;28;20051;-67
2024/01/15 02:06:32;;;;;;;18.35;17.40;;;;;;;;;;5113593;28;20498;-67
2024/01/15 02:09:00;;;;;;;14.93;14.15;;;;;;;;;;5113350;28;20056;-68
2024/01/15 02:11:27;;;;;;;12.88;12.20;;;;;;;;;;5095199;28;20044;-67
2024/01/15 02:13:53;;;;;;;20.80;20.02;;;;;;;;;;5093158;28;20101;-67
2024/01/15 02:16:20;;;;;;;11.57;11.15;;;;;;;;;;5105766;28;20540;-66
2024/01/15 02:18:47;;;;;;;16.52;15.52;;;;;;;;;;5113317;28;20043;-66
2024/01/15 02:21:13;;;;;;;25.65;24.55;;;;;;;;;;5113443;28;20458;-66
2024/01/15 02:23:41;;;;;;;15.25;14.65;;;;;;;;;;5113049;28;20564;-66
2024/01/15 02:26:08;;;;;;;20.75;19.90;;;;;;;;;;5113279;28;20051;-67
2024/01/15 02:28:35;;;;;;;21.02;19.83;;;;;;;;;;5098656;28;20572;-66
2024/01/15 02:31:01;;;;;;;11.27;10.75;;;;;;;;;;5109982;28;20043;-66
2024/01/15 02:33:28;;;;;;;18.35;17.65;;;;;;;;;;5113070;28;20128;-66
2024/01/15 02:35:54;;;;;;;13.18;12.68;;;;;;;;;;5113007;28;20551;-66
2024/01/15 02:38:21;;;;;;;12.98;12.48;;;;;;;;;;5112653;28;20047;-67
2024/01/15 02:40:49;;;;;;;12.43;11.82;;;;;;;;;;5112934;28;20113;-66
2024/01/15 02:43:15;;;;;;;14.80;14.18;;;;;;;;;;5104989;28;20040;-66
2024/01/15 02:45:42;;;;;;;14.52;13.93;;;;;;;;;;5104333;28;20056;-66
2024/01/15 02:48:08;;;;;;;11.02;10.48;;;;;;;;;;5101175;28;20125;-66
2024/01/15 02:50:35;;;;;;;11.75;10.75;;;;;;;;;;5112743;28;20048;-66
2024/01/15 02:53:01;;;;;;;12.38;11.23;;;;;;;;;;5112556;28;20482;-67
2024/01/15 02:55:29;;;;;;;9.13;8.70;;;;;;;;;;5112366;28;20055;-67
2024/01/15 02:57:57;;;;;;;8.73;8.38;;;;;;;;;;5112350;28;20075;-67
2024/01/15 03:00:23;;;;;;;12.23;11.65;;;;;;;;;;5106608;28;20048;-66
2024/01/15 03:02:51;;;;;;;11.70;11.18;;;;;;;;;;5092056;28;20048;-67
2024/01/15 03:05:18;;;;;;;12.80;12.23;;;;;;;;;;5092011;28;20052;-66
2024/01/15 03:07:44;;;;;;;15.02;14.50;;;;;;;;;;5092121;28;20056;-67
2024/01/15 03:10:11;;;;;;;16.73;16.02;;;;;;;;;;5111425;28;20048;-67
2024/01/15 03:12:37;;;;;;;23.73;22.80;;;;;;;;;;5112376;28;20452;-67
2024/01/15 03:15:06;;;;;;;15.65;14.85;;;;;;;;;;5103119;28;20051;-67
2024/01/15 03:17:32;;;;;;;17.13;16.33;;;;;;;;;;5100358;28;20534;-66
2024/01/15 03:19:59;;;;;;;16.60;15.95;;;;;;;;;;5111911;28;20051;-67
2024/01/15 03:22:25;;;;;;;10.82;10.32;;;;;;;;;;5112216;28;20048;-67
2024/01/15 03:24:51;;;;;;;15.18;14.48;;;;;;;;;;5111618;28;20043;-66
2024/01/15 03:27:18;;;;;;;16.73;15.77;;;;;;;;;;5112284;28;20103;-66
2024/01/15 03:29:44;;;;;;;20.25;19.35;;;;;;;;;;5108440;28;20051;-67
2024/01/15 03:32:12;;;;;;;10.73;10.23;;;;;;;;;;5091857;28;20105;-67
2024/01/15 03:34:39;;;;;;;12.50;11.63;;;;;;;;;;5105844;28;20464;-67
2024/01/15 03:37:05;;;;;;;11.82;11.13;;;;;;;;;;5112015;28;20108;-68
2024/01/15 03:39:32;;;;;;;14.85;13.52;;;;;;;;;;5098237;28;20055;-68
2024/01/15 03:41:58;;;;;;;9.77;9.35;;;;;;;;;;5099598;28;20036;-68
2024/01/15 03:44:25;;;;;;;13.98;13.25;;;;;;;;;;5091470;28;20135;-68
2024/01/15 03:46:51;;;;;;;15.38;14.75;;;;;;;;;;5091522;28;20036;-68
2024/01/15 03:49:19;;;;;;;27.88;25.33;;;;;;;;;;5091573;28;20052;-68
2024/01/15 03:51:45;;;;;;;12.65;11.85;;;;;;;;;;5091444;28;20097;-68
2024/01/15 03:54:12;;;;;;;12.63;12.13;;;;;;;;;;5089801;28;20060;-68
2024/01/15 03:56:38;;;;;;;15.50;14.90;;;;;;;;;;5111556;28;20215;-68
2024/01/15 03:59:05;;;;;;;13.75;13.20;;;;;;;;;;5110023;28;20116;-68
2024/01/15 04:01:31;;;;;;;15.20;14.38;;;;;;;;;;5111785;28;20047;-68
2024/01/15 04:03:58;;;;;;;20.40;19.48;;;;;;;;;;5108371;28;20048;-68
2024/01/15 04:06:26;;;;;;;9.20;8.80;;;;;;;;;;5091581;28;20044;-68
2024/01/15 04:08:52;;;;;;;11.27;10.82;;;;;;;;;;5092323;28;20048;-68
2024/01/15 04:11:18;;;;;;;15.23;14.52;;;;;;;;;;5113268;28;20199;-69
2024/01/15 04:13:45;;;;;;;17.38;16.55;;;;;;;;;;5103029;28;20048;-69
2024/01/15 04:16:11;;;;;;;16.17;15.55;;;;;;;;;;5095581;28;20113;-68
2024/01/15 04:18:38;;;;;;;31.60;30.05;;;;;;;;;;5095193;28;20051;-68
2024/01/15 04:21:05;;;;;;;12.95;12.43;;;;;;;;;;5095001;28;20047;-69
2024/01/15 04:23:33;;;;;;;15.85;15.15;;;;;;;;;;5095070;28;20052;-68
2024/01/15 04:25:59;;;;;;;13.93;13.35;;;;;;;;;;5093966;28;20116;-68
2024/01/15 04:28:26;;;;;;;10.82;10.32;;;;;;;;;;5094965;28;20093;-68
2024/01/15 04:30:52;;;;;;;14.55;13.95;;;;;;;;;;5102005;28;20043;-68
2024/01/15 04:33:18;;;;;;;14.95;14.27;;;;;;;;;;5115202;28;20551;-68
2024/01/15 04:35:45;;;;;;;11.30;10.57;;;;;;;;;;5109024;28;20120;-68
2024/01/15 04:38:11;;;;;;;11.88;11.40;;;;;;;;;;5095015;28;20098;-68
2024/01/15 04:40:39;;;;;;;17.58;16.75;;;;;;;;;;5095985;28;20040;-68
2024/01/15 04:43:06;;;;;;;16.77;15.85;;;;;;;;;;5087303;28;20488;-69
2024/01/15 04:45:32;;;;;;;9.32;8.93;;;;;;;;;;5095032;28;20112;-67
2024/01/15 04:47:59;;;;;;;12.18;11.73;;;;;;;;;;5098757;28;20096;-68
2024/01/15 04:50:25;;;;;;;13.48;12.95;;;;;;;;;;5115117;28;20044;-67
2024/01/15 04:52:52;;;;;;;13.20;12.68;;;;;;;;;;5111652;28;20067;-67
2024/01/15 04:55:18;;;;;;;15.52;14.82;;;;;;;;;;5094647;28;20105;-66
2024/01/15 04:57:46;;;;;;;11.40;10.95;;;;;;;;;;5096808;28;20081;-66
2024/01/15 05:00:13;;;;;;;16.20;15.52;;;;;;;;;;5105611;28;20495;-67
2024/01/15 05:02:40;;;;;;;15.95;15.32;;;;;;;;;;5094269;28;20052;-67
2024/01/15 05:05:06;;;;;;;12.50;11.98;;;;;;;;;;5094586;28;20048;-66
2024/01/15 05:07:33;;;;;;;19.67;18.67;;;;;;;;;;5113600;28;20489;-66
2024/01/15 05:09:59;;;;;;;17.52;16.73;;;;;;;;;;5114672;28;20124;-67
2024/01/15 05:12:26;;;;;;;23.77;22.52;;;;;;;;;;5096367;28;20045;-66
2024/01/15 05:14:54;;;;;;;16.83;16.08;;;;;;;;;;5094177;28;20080;-66
2024/01/15 05:17:20;;;;;;;10.82;10.32;;;;;;;;;;5092957;28;20048;-67
2024/01/15 05:19:47;;;;;;;14.52;14.00;;;;;;;;;;5094019;28;20048;-67
2024/01/15 05:22:13;;;;;;;10.85;10.43;;;;;;;;;;5093648;28;20043;-67
2024/01/15 05:24:39;;;;;;;13.60;12.52;;;;;;;;;;5093860;28;20192;-67
2024/01/15 05:27:06;;;;;;;12.73;12.20;;;;;;;;;;5095226;28;20052;-67
2024/01/15 05:29:32;;;;;;;13.38;12.85;;;;;;;;;;5093887;28;20097;-67
2024/01/15 05:32:00;;;;;;;16.90;16.23;;;;;;;;;;5092418;28;20052;-67
2024/01/15 05:34:27;;;;;;;12.80;12.20;;;;;;;;;;5094625;28;20047;-67
2024/01/15 05:36:53;;;;;;;22.95;22.13;;;;;;;;;;5114193;28;20322;-67
2024/01/15 05:39:20;;;;;;;10.77;10.25;;;;;;;;;;5114216;28;20048;-68
2024/01/15 05:41:46;;;;;;;11.13;10.63;;;;;;;;;;5094009;28;20463;-67
2024/01/15 05:44:13;;;;;;;21.35;19.67;;;;;;;;;;5093947;28;20176;-68
2024/01/15 05:46:39;;;;;;;14.70;14.02;;;;;;;;;;5106705;28;20545;-67
2024/01/15 05:49:07;;;;;;;20.33;16.10;;;;;;;;;;5093548;28;20052;-67
2024/01/15 05:51:33;;;;;;;14.23;13.35;;;;;;;;;;5093428;28;20101;-69
2024/01/15 05:54:00;;;;;;;12.65;11.95;;;;;;;;;;5092032;28;20445;-67
2024/01/15 05:56:26;;;;;;;16.63;15.93;;;;;;;;;;5093257;28;20044;-67
2024/01/15 05:58:53;;;;;;;18.17;17.25;;;;;;;;;;5093076;28;20396;-66
2024/01/15 06:01:19;;;;;;;19.05;18.13;;;;;;;;;;5107590;28;20559;-66
2024/01/15 06:03:46;;;;;;;14.52;13.82;;;;;;;;;;5113497;28;20044;-67
2024/01/15 06:06:13;;;;;;;13.80;12.90;;;;;;;;;;5100358;28;20055;-66
2024/01/15 06:08:40;;;;;;;17.17;16.30;;;;;;;;;;5113393;28;20048;-69
2024/01/15 06:11:07;;;;;;;14.43;13.65;;;;;;;;;;5099744;28;20568;-67
2024/01/15 06:13:33;;;;;;;17.65;16.55;;;;;;;;;;5092912;28;20192;-67
2024/01/15 06:16:00;;;;;;;13.43;12.85;;;;;;;;;;5092970;28;20048;-67
2024/01/15 06:18:25;;;;;;;14.88;14.02;;;;;;;;;;5092974;28;20479;-68
2024/01/15 06:20:52;;;;;;;17.42;16.70;;;;;;;;;;5093202;28;20052;-68
2024/01/15 06:23:20;;;;;;;13.23;12.63;;;;;;;;;;5089933;28;20052;-68
2024/01/15 06:25:46;;;;;;;16.13;15.40;;;;;;;;;;5091479;28;20043;-69
2024/01/15 06:28:13;;;;;;;23.08;22.17;;;;;;;;;;5091328;28;20040;-67
2024/01/15 06:30:39;;;;;;;17.75;16.48;;;;;;;;;;5092647;28;20048;-68
2024/01/15 06:33:06;;;;;;;11.25;10.82;;;;;;;;;;5097626;28;20070;-67
2024/01/15 06:35:34;;;;;;;16.27;15.48;;;;;;;;;;5077991;28;20044;-68
2024/01/15 06:38:00;;;;;;;12.57;12.07;;;;;;;;;;5082536;28;20059;-67
2024/01/15 06:40:28;;;;;;;28.63;27.33;;;;;;;;;;5084804;28;20564;-67
2024/01/15 06:42:54;;;;;;;23.00;21.45;;;;;;;;;;5085477;28;20187;-68
2024/01/15 06:45:21;;;;;;;20.35;19.27;;;;;;;;;;5068853;28;20461;-67
2024/01/15 06:47:47;;;;;;;28.25;26.95;;;;;;;;;;5088152;28;20052;-68
2024/01/15 06:50:13;;;;;;;20.92;19.83;;;;;;;;;;5086379;28;20487;-67
2024/01/15 06:52:40;;;;;;;26.55;24.98;;;;;;;;;;5079759;28;20090;-67
2024/01/15 06:55:06;;;;;;;21.85;20.85;;;;;;;;;;5078540;28;20470;-68
2024/01/15 06:57:34;;;;;;;20.25;19.00;;;;;;;;;;5071428;28;20137;-66
2024/01/15 07:00:01;;;;;;;21.20;20.17;;;;;;;;;;5072165;28;20052;-67
2024/01/15 07:02:27;;;;;;;20.15;18.90;;;;;;;;;;5076944;28;20048;-66
2024/01/15 07:04:54;;;;;;;27.52;26.20;;;;;;;;;;5090411;28;20733;-67
2024/01/15 07:07:20;;;;;;;22.75;21.80;;;;;;;;;;5082015;28;20048;-66
2024/01/15 07:09:47;;;;;;;19.33;18.27;;;;;;;;;;5088230;28;20109;-66
2024/01/15 07:12:13;;;;;;;35.20;33.70;;;;;;;;;;5079794;28;20510;-67
2024/01/15 07:14:41;;;;;;;33.17;31.52;;;;;;;;;;5090267;28;20089;-67
2024/01/15 07:17:08;;;;;;;21.63;20.80;;;;;;;;;;5088764;28;20502;-66
2024/01/15 07:19:34;;;;;;;26.00;25.00;;;;;;;;;;5088745;28;20052;-67
2024/01/15 07:22:01;;;;;;;16.33;15.52;;;;;;;;;;5076743;28;20060;-66
2024/01/15 07:24:27;;;;;;;29.83;28.52;;;;;;;;;;5089044;28;20055;-67
2024/01/15 07:26:53;;;;;;;20.02;19.08;;;;;;;;;;5072820;28;20553;-67
2024/01/15 07:29:20;;;;;;;37.40;35.75;;;;;;;;;;5085152;28;20105;-67
2024/01/15 07:31:50;;;;;;;23.40;22.38;;;;;;;;;;5111692;28;20099;-66
2024/01/15 07:34:16;;;;;;;32.53;31.23;;;;;;;;;;5111551;28;20047;-67
2024/01/15 07:36:43;;;;;;;19.83;18.45;;;;;;;;;;5111317;28;20044;-67
2024/01/15 07:39:10;;;;;;;33.13;31.65;;;;;;;;;;5096102;28;20120;-66
2024/01/15 07:41:36;;;;;;;38.67;36.30;;;;;;;;;;5091630;28;20044;-66
2024/01/15 07:44:03;;;;;;;32.97;31.75;;;;;;;;;;5084897;28;20048;-65
2024/01/15 07:46:29;;;;;;;43.80;41.63;;;;;;;;;;5083778;28;20229;-66
2024/01/15 07:48:57;;;;;;;32.30;31.08;;;;;;;;;;5087235;28;20544;-67
2024/01/15 07:51:24;;;;;;;37.97;35.72;;;;;;;;;;5082691;28;20048;-67
2024/01/15 07:53:50;;;;;;;38.42;36.55;;;;;;;;;;5084301;28;20096;-67
2024/01/15 07:56:17;;;;;;;39.25;37.38;;;;;;;;;;5079978;28;20098;-67
2024/01/15 07:58:44;;;;;;;47.25;44.65;;;;;;;;;;5087892;28;20098;-67
2024/01/15 08:01:10;;;;;;;38.45;36.25;;;;;;;;;;5078137;28;20135;-67
2024/01/15 08:03:36;;;;;;;25.08;23.33;;;;;;;;;;5090747;28;20476;-67
2024/01/15 08:06:05;;;;;;;42.28;40.25;;;;;;;;;;5095149;28;20039;-67
2024/01/15 08:08:31;;;;;;;37.15;35.47;;;;;;;;;;5104966;28;20045;-67
2024/01/15 08:10:58;;;;;;;38.88;37.05;;;;;;;;;;5099545;28;20052;-68
2024/01/15 08:13:27;;;;;;;38.17;36.80;;;;;;;;;;5091307;28;20060;-67
2024/01/15 08:15:53;;;;;;;46.50;44.28;;;;;;;;;;5109325;28;20092;-69
2024/01/15 08:18:21;;;;;;;40.95;39.25;;;;;;;;;;5106528;28;20109;-66
2024/01/15 08:20:48;;;;;;;50.85;48.85;;;;;;;;;;5092291;28;20067;-67
2024/01/15 08:23:16;;;;;;;43.30;41.35;;;;;;;;;;5086279;28;20040;-67
2024/01/15 08:25:42;;;;;;;40.92;38.47;;;;;;;;;;5089939;28;20044;-67
2024/01/15 08:28:09;;;;;;;38.47;36.97;;;;;;;;;;5086103;28;20048;-68
2024/01/15 08:30:35;;;;;;;42.47;40.85;;;;;;;;;;5079294;28;20119;-67
2024/01/15 08:33:02;;;;;;;45.15;43.25;;;;;;;;;;5076082;28;20113;-68
2024/01/15 08:35:28;;;;;;;49.90;47.45;;;;;;;;;;5083438;28;20045;-68
2024/01/15 08:37:55;;;;;;;43.30;41.47;;;;;;;;;;5086285;28;20828;-68
2024/01/15 08:40:23;;;;;;;47.13;44.83;;;;;;;;;;5077029;28;20048;-71
2024/01/15 08:42:49;;;;;;;47.65;45.78;;;;;;;;;;5080089;28;20044;-68
2024/01/15 08:45:16;;;;;;;49.75;47.80;;;;;;;;;;5090948;28;20079;-68
2024/01/15 08:47:42;;;;;;;40.92;39.13;;;;;;;;;;5082347;28;20048;-69
2024/01/15 08:50:10;;;;;;;45.10;43.15;;;;;;;;;;5085726;28;20059;-69
2024/01/15 08:52:37;;;;;;;44.75;42.92;;;;;;;;;;5090648;28;20516;-66
2024/01/15 08:55:04;;;;;;;49.45;47.42;;;;;;;;;;5089066;28;20044;-67
2024/01/15 08:57:32;;;;;;;48.95;46.20;;;;;;;;;;5101456;28;20087;-67
2024/01/15 08:59:58;;;;;;;26.45;25.02;;;;;;;;;;5092993;28;20422;-67
2024/01/15 09:02:25;;;;;;;52.20;49.78;;;;;;;;;;5086782;28;20048;-67
2024/01/15 09:04:51;;;;;;;50.45;48.30;;;;;;;;;;5083328;28;20056;-68
2024/01/15 09:07:18;;;;;;;52.30;49.83;;;;;;;;;;5089072;28;20108;-68
2024/01/15 09:09:45;;;;;;;57.85;55.22;;;;;;;;;;5094150;28;20135;-68
2024/01/15 09:12:15;;;;;;;44.40;42.50;;;;;;;;;;5094693;28;20114;-68
2024/01/15 09:14:43;;;;;;;47.97;45.72;;;;;;;;;;5094178;28;20498;-68
2024/01/15 09:17:09;;;;;;;49.60;46.85;;;;;;;;;;5094157;28;20044;-68
2024/01/15 09:19:36;;;;;;;58.78;56.47;;;;;;;;;;5094359;28;20117;-67
2024/01/15 09:22:02;;;;;;;51.00;48.65;;;;;;;;;;5094087;28;20040;-68
2024/01/15 09:24:29;;;;;;;54.45;51.47;;;;;;;;;;5093104;28;20563;-68
2024/01/15 09:26:55;;;;;;;48.97;46.70;;;;;;;;;;5086827;28;20109;-69
2024/01/15 09:29:23;;;;;;;41.88;39.95;;;;;;;;;;5073882;28;20045;-68
2024/01/15 09:31:51;;;;;;;51.60;49.35;;;;;;;;;;5073697;28;20057;-69
2024/01/15 09:34:18;;;;;;;49.33;47.33;;;;;;;;;;5073812;28;20106;-68
2024/01/15 09:36:44;;;;;;;54.58;52.38;;;;;;;;;;5073727;28;20044;-68
2024/01/15 09:39:11;;;;;;;55.00;52.42;;;;;;;;;;5073654;28;20057;-68
2024/01/15 09:41:38;;;;;;;54.08;51.70;;;;;;;;;;5073573;28;20045;-68
2024/01/15 09:44:04;;;;;;;57.03;53.80;;;;;;;;;;5081868;28;20109;-69
2024/01/15 09:46:32;;;;;;;49.90;47.50;;;;;;;;;;5077509;28;20090;-69
2024/01/15 09:49:00;;;;;;;50.90;48.20;;;;;;;;;;5073300;28;20052;-69
2024/01/15 09:51:26;;;;;;;54.60;51.92;;;;;;;;;;5073506;28;20048;-69
2024/01/15 09:53:53;;;;;;;47.13;45.08;;;;;;;;;;5073337;28;20049;-69
2024/01/15 09:56:20;;;;;;;47.10;45.10;;;;;;;;;;5073306;28;20114;-71
2024/01/15 09:58:47;;;;;;;33.80;31.50;;;;;;;;;;5073079;28;20774;-70
2024/01/15 10:01:15;;;;;;;56.08;52.90;;;;;;;;;;5073328;28;20056;-70
2024/01/15 10:03:41;;;;;;;63.05;60.05;;;;;;;;;;5086353;28;20045;-70
2024/01/15 10:06:09;;;;;;;31.30;29.88;;;;;;;;;;5085226;28;20450;-70
2024/01/15 10:08:37;;;;;;;56.42;53.45;;;;;;;;;;5072901;28;20049;-68
2024/01/15 10:11:04;;;;;;;34.50;32.38;;;;;;;;;;5072860;28;20481;-69
2024/01/15 10:13:31;;;;;;;68.55;64.80;;;;;;;;;;5072877;28;20593;-69
2024/01/15 10:15:58;;;;;;;69.05;65.75;;;;;;;;;;5072788;28;20102;-70
2024/01/15 10:18:24;;;;;;;62.15;59.33;;;;;;;;;;5072656;28;20123;-69
2024/01/15 10:20:51;;;;;;;53.05;49.75;;;;;;;;;;5072008;28;20044;-69
2024/01/15 10:23:19;;;;;;;57.63;55.17;;;;;;;;;;5090891;28;20040;-68
2024/01/15 10:25:46;;;;;;;53.88;51.45;;;;;;;;;;5092845;28;20540;-69
2024/01/15 10:28:14;;;;;;;61.13;58.38;;;;;;;;;;5092790;28;20044;-69
2024/01/15 10:30:40;;;;;;;60.88;57.50;;;;;;;;;;5092495;28;20098;-71
2024/01/15 10:33:07;;;;;;;59.70;56.47;;;;;;;;;;5095639;28;20048;-68
2024/01/15 10:35:34;;;;;;;61.83;59.15;;;;;;;;;;5097928;28;20052;-69
2024/01/15 10:38:00;;;;;;;63.88;61.25;;;;;;;;;;5090380;28;20052;-69
2024/01/15 10:40:28;;;;;;;59.72;57.03;;;;;;;;;;5090192;28;20056;-68
2024/01/15 10:42:55;;;;;;;61.30;58.53;;;;;;;;;;5093876;28;20089;-69
2024/01/15 10:45:22;;;;;;;67.95;64.43;;;;;;;;;;5088280;28;20055;-69
2024/01/15 10:47:49;;;;;;;65.75;62.55;;;;;;;;;;5081524;28;20109;-70
2024/01/15 10:50:15;;;;;;;62.85;58.97;;;;;;;;;;5082589;28;20072;-70
2024/01/15 10:52:43;;;;;;;57.50;54.13;;;;;;;;;;5085415;28;20036;-69
2024/01/15 10:55:10;;;;;;;70.60;67.05;;;;;;;;;;5087917;28;20071;-69
2024/01/15 10:57:38;;;;;;;69.15;65.72;;;;;;;;;;5074490;28;20056;-69
2024/01/15 11:00:05;;;;;;;68.40;65.15;;;;;;;;;;5105629;28;20126;-69
2024/01/15 11:02:32;;;;;;;76.32;72.70;;;;;;;;;;5112312;28;20079;-69
2024/01/15 11:04:59;;;;;;;74.03;69.95;;;;;;;;;;5100280;28;20075;-70
2024/01/15 11:07:27;;;;;;;91.47;87.22;;;;;;;;;;5075559;28;20052;-70
2024/01/15 11:09:53;;;;;;;77.97;73.75;;;;;;;;;;5105290;28;20113;-70
2024/01/15 11:12:20;;;;;;;75.25;72.40;;;;;;;;;;5084391;28;20048;-70
2024/01/15 11:14:49;;;;;;;76.57;72.85;;;;;;;;;;5091442;28;20088;-70
2024/01/15 11:17:15;;;;;;;66.03;62.58;;;;;;;;;;5094278;28;20105;-70
2024/01/15 11:19:45;;;;;;;48.85;45.67;;;;;;;;;;5076524;28;20449;-70
2024/01/15 11:22:34;;;;;;;70.15;66.30;;;;;;;;;;5085812;28;20071;-70
2024/01/15 11:25:02;;;;;;;64.63;61.95;;;;;;;;;;5086785;28;20048;-70
2024/01/15 11:27:40;;;;;;;66.25;62.33;;;;;;;;;;5091204;28;20052;-70
2024/01/15 11:30:11;;;;;;;67.43;64.07;;;;;;;;;;5079248;28;20040;-71
2024/01/15 11:32:41;;;;;;;64.20;60.63;;;;;;;;;;5091564;28;20040;-70
2024/01/15 11:35:09;;;;;;;84.60;80.00;;;;;;;;;;5090824;28;20076;-70
2024/01/15 11:37:54;;;;;;;60.65;56.92;;;;;;;;;;5080029;28;20519;-70
2024/01/15 11:40:21;;;;;;;76.53;72.97;;;;;;;;;;5079383;28;20459;-70
2024/01/15 11:42:49;;;;;;;85.45;80.85;;;;;;;;;;5084202;28;20056;-71
2024/01/15 11:45:19;;;;;;;83.97;79.53;;;;;;;;;;5083807;28;20109;-69
2024/01/15 11:47:58;;;;;;;90.80;85.50;;;;;;;;;;5080159;28;20048;-70
2024/01/15 11:50:25;;;;;;;110.28;103.95;;;;;;;;;;5077021;28;20098;-71
2024/01/15 11:52:57;;;;;;;95.88;90.90;;;;;;;;;;5078634;28;20360;-70
2024/01/15 11:55:28;;;;;;;94.50;88.70;;;;;;;;;;5079802;28;20040;-69
2024/01/15 11:57:55;;;;;;;98.43;92.72;;;;;;;;;;5084958;28;20048;-69
2024/01/15 12:00:23;;;;;;;99.38;94.40;;;;;;;;;;5088717;28;20036;-70
2024/01/15 12:02:50;;;;;;;99.85;95.60;;;;;;;;;;5086249;28;20048;-69
2024/01/15 12:05:18;;;;;;;93.65;89.43;;;;;;;;;;5074652;28;20079;-69
2024/01/15 12:07:45;;;;;;;85.15;81.18;;;;;;;;;;5090717;28;20056;-70
2024/01/15 12:10:12;;;;;;;88.15;85.10;;;;;;;;;;5089486;28;20043;-69
2024/01/15 12:12:44;;;;;;;83.05;79.88;;;;;;;;;;5086447;28;20044;-70
2024/01/15 12:15:10;;;;;;;93.38;90.25;;;;;;;;;;5076288;28;20445;-69
2024/01/15 12:17:39;;;;;;;102.78;99.35;;;;;;;;;;5078043;28;20044;-69
2024/01/15 12:20:05;;;;;;;97.57;94.30;;;;;;;;;;5091106;28;20052;-70
2024/01/15 12:22:33;;;;;;;123.47;119.53;;;;;;;;;;5083659;28;20041;-70
2024/01/15 12:24:59;;;;;;;80.75;78.03;;;;;;;;;;5077349;28;20446;-69
2024/01/15 12:27:26;;;;;;;101.78;98.47;;;;;;;;;;5094231;28;20039;-71
2024/01/15 12:29:53;;;;;;;106.85;103.35;;;;;;;;;;5079355;28;20052;-70
2024/01/15 12:32:20;;;;;;;111.47;107.80;;;;;;;;;;5086721;28;20048;-70
2024/01/15 12:34:49;;;;;;;125.22;121.30;;;;;;;;;;5094790;28;20052;-71
2024/01/15 12:37:16;;;;;;;238.35;231.65;;;;;;;;;;5081628;28;20461;-70
2024/01/15 12:39:44;;;;;;;118.80;115.00;;;;;;;;;;5085879;28;20456;-70
2024/01/15 12:42:11;;;;;;;153.63;148.80;;;;;;;;;;5099110;28;20125;-70
2024/01/15 12:44:37;;;;;;;132.30;128.15;;;;;;;;;;5102649;28;20044;-70
2024/01/15 12:47:04;;;;;;;;;;;;;;;;;;5084000;28;20052;-72
2024/01/15 12:49:30;;;;;;;131.85;127.68;;;;;;;;;;5079933;28;19920;-70
2024/01/15 12:51:59;;;;;;;122.80;118.70;;;;;;;;;;5090902;28;20044;-71
2024/01/15 12:54:25;;;;;;;116.28;112.22;;;;;;;;;;5100754;28;20495;-70
2024/01/15 12:56:52;;;;;;;124.15;120.13;;;;;;;;;;5094245;28;21654;-71
2024/01/15 12:59:19;;;;;;;130.07;125.88;;;;;;;;;;5090558;28;20081;-72
2024/01/15 13:01:46;;;;;;;133.73;129.52;;;;;;;;;;5081370;28;20056;-70
2024/01/15 13:04:13;;;;;;;142.05;137.63;;;;;;;;;;5087963;28;20048;-70
2024/01/15 13:06:39;;;;;;;123.38;119.40;;;;;;;;;;5089046;28;20051;-69
2024/01/15 13:09:10;;;;;;;137.10;132.75;;;;;;;;;;5087177;28;20048;-71
2024/01/15 13:11:36;;;;;;;121.25;117.38;;;;;;;;;;5093867;28;20048;-69
2024/01/15 13:14:02;;;;;;;130.65;126.60;;;;;;;;;;5093501;28;20102;-69
2024/01/15 13:16:29;;;;;;;125.85;121.85;;;;;;;;;;5094261;28;20052;-70
2024/01/15 13:18:56;;;;;;;130.73;126.55;;;;;;;;;;5083109;28;20056;-69
2024/01/15 13:21:22;;;;;;;122.20;118.35;;;;;;;;;;5091924;28;20072;-71
2024/01/15 13:23:49;;;;;;;115.22;111.50;;;;;;;;;;5092576;28;20047;-71
2024/01/15 13:26:18;;;;;;;127.93;123.82;;;;;;;;;;5093909;28;20044;-70
2024/01/15 13:28:44;;;;;;;125.25;121.28;;;;;;;;;;5087796;28;20067;-69
2024/01/15 13:31:11;;;;;;;124.38;120.35;;;;;;;;;;5096938;28;20080;-70
2024/01/15 13:33:37;;;;;;;128.68;124.55;;;;;;;;;;5095027;28;20037;-71
2024/01/15 13:36:08;;;;;;;140.35;135.90;;;;;;;;;;5082054;28;20048;-70
2024/01/15 13:38:36;;;;;;;136.93;132.63;;;;;;;;;;5092747;28;20044;-70
2024/01/15 13:41:03;;;;;;;120.88;117.03;;;;;;;;;;5093597;28;20051;-70
2024/01/15 13:43:31;;;;;;;132.13;127.97;;;;;;;;;;5092982;28;20487;-70
2024/01/15 13:45:57;;;;;;;123.28;119.32;;;;;;;;;;5092755;28;20075;-70
2024/01/15 13:48:24;;;;;;;128.27;124.28;;;;;;;;;;5093321;28;20097;-72
2024/01/15 13:50:50;;;;;;;127.95;123.78;;;;;;;;;;5092247;28;20043;-70
2024/01/15 13:53:17;;;;;;;133.85;129.57;;;;;;;;;;5079825;28;20075;-70
2024/01/15 13:55:43;;;;;;;130.13;126.00;;;;;;;;;;5091547;28;20052;-71
2024/01/15 13:58:10;;;;;;;87.78;84.35;;;;;;;;;;5090720;28;20461;-71
2024/01/15 14:00:39;;;;;;;133.35;129.13;;;;;;;;;;5090073;28;20051;-70
2024/01/15 14:03:05;;;;;;;122.63;118.70;;;;;;;;;;5086150;28;20513;-69
2024/01/15 14:05:32;;;;;;;124.22;120.30;;;;;;;;;;5092590;28;20113;-70
2024/01/15 14:07:58;;;;;;;115.03;111.30;;;;;;;;;;5092754;28;20040;-70
2024/01/15 14:10:25;;;;;;;121.50;117.57;;;;;;;;;;5084593;28;20043;-71
2024/01/15 14:12:51;;;;;;;127.97;123.75;;;;;;;;;;5080041;28;20090;-70